createdAt,value
2022-08-28T00:00:42.452Z,97876.00
2022-08-28T00:03:12.566Z,97873.00
2022-08-28T00:05:42.693Z,97872.00
2022-08-28T00:08:13.540Z,97876.00
2022-08-28T00:10:42.631Z,97868.00
2022-08-28T00:13:18.465Z,97867.00
2022-08-28T00:15:49.337Z,97872.00
2022-08-28T00:18:18.685Z,97871.00
2022-08-28T00:20:47.377Z,97873.00
2022-08-28T00:23:16.060Z,97871.00
2022-08-28T00:25:44.004Z,97879.00
2022-08-28T00:28:23.712Z,97878.00
2022-08-28T00:30:55.565Z,97871.00
2022-08-28T00:33:27.274Z,97871.00
2022-08-28T00:35:56.072Z,97879.00
2022-08-28T00:38:27.327Z,97880.00
2022-08-28T00:41:00.024Z,97879.00
2022-08-28T00:43:38.401Z,97876.00
2022-08-28T00:46:12.658Z,97882.00
2022-08-28T00:48:41.088Z,97881.00
2022-08-28T00:51:26.825Z,97880.00
2022-08-28T00:53:59.056Z,97880.00
2022-08-28T00:56:28.871Z,97887.00
2022-08-28T00:59:04.497Z,97877.00
2022-08-28T01:01:33.266Z,97878.00
2022-08-28T01:04:02.289Z,97877.00
2022-08-28T01:06:30.092Z,97876.00
2022-08-28T01:08:59.016Z,97876.00
2022-08-28T01:11:27.189Z,97882.00
2022-08-28T01:13:56.846Z,97881.00
2022-08-28T01:16:33.982Z,97876.00
2022-08-28T01:19:04.433Z,97879.00
2022-08-28T01:21:40.033Z,97888.00
2022-08-28T01:24:14.799Z,97886.00
2022-08-28T01:26:43.447Z,97892.00
2022-08-28T01:29:13.511Z,97882.00
2022-08-28T01:31:42.827Z,97874.00
2022-08-28T01:34:13.924Z,97878.00
2022-08-28T01:36:43.000Z,97879.00
2022-08-28T01:39:18.898Z,97872.00
2022-08-28T01:41:52.133Z,97875.00
2022-08-28T01:44:24.292Z,97875.00
2022-08-28T01:46:52.803Z,97869.00
2022-08-28T01:49:21.575Z,97876.00
2022-08-28T01:51:49.950Z,97869.00
2022-08-28T01:54:21.399Z,97871.00
2022-08-28T01:56:49.251Z,97874.00
2022-08-28T01:59:17.080Z,97870.00
2022-08-28T02:01:45.840Z,97876.00
2022-08-28T02:04:14.286Z,97874.00
2022-08-28T02:06:42.824Z,97880.00
2022-08-28T02:09:14.857Z,97876.00
2022-08-28T02:11:46.621Z,97876.00
2022-08-28T02:14:15.515Z,97881.00
2022-08-28T02:16:43.332Z,97881.00
2022-08-28T02:19:12.119Z,97886.00
2022-08-28T02:21:40.573Z,97882.00
2022-08-28T02:24:08.718Z,97883.00
2022-08-28T02:26:36.587Z,97882.00
2022-08-28T02:29:06.078Z,97885.00
2022-08-28T02:31:33.961Z,97879.00
2022-08-28T02:34:01.799Z,97880.00
2022-08-28T02:36:29.772Z,97878.00
2022-08-28T02:38:58.020Z,97881.00
2022-08-28T02:41:26.403Z,97887.00
2022-08-28T02:43:54.600Z,97892.00
2022-08-28T02:46:25.442Z,97888.00
2022-08-28T02:48:53.312Z,97881.00
2022-08-28T02:51:21.149Z,97890.00
2022-08-28T02:53:50.401Z,97878.00
2022-08-28T02:56:18.246Z,97885.00
2022-08-28T02:58:46.012Z,97877.00
2022-08-28T03:01:15.066Z,97878.00
2022-08-28T03:03:45.090Z,97876.00
2022-08-28T03:06:14.226Z,97880.00
2022-08-28T03:08:43.676Z,97879.00
2022-08-28T03:11:13.085Z,97880.00
2022-08-28T03:13:41.904Z,97878.00
2022-08-28T03:16:10.067Z,97871.00
2022-08-28T03:18:38.890Z,97877.00
2022-08-28T03:21:09.469Z,97876.00
2022-08-28T03:23:38.107Z,97880.00
2022-08-28T03:26:09.906Z,97879.00
2022-08-28T03:28:42.452Z,97877.00
2022-08-28T03:31:13.910Z,97879.00
2022-08-28T03:33:42.971Z,97883.00
2022-08-28T03:36:16.278Z,97881.00
2022-08-28T03:38:44.372Z,97880.00
2022-08-28T03:41:14.144Z,97873.00
2022-08-28T03:43:42.449Z,97890.00
2022-08-28T03:46:16.904Z,97881.00
2022-08-28T03:48:45.913Z,97886.00
2022-08-28T03:51:18.811Z,97890.00
2022-08-28T03:53:51.366Z,97893.00
2022-08-28T03:56:24.419Z,97899.00
2022-08-28T03:58:57.435Z,97889.00
2022-08-28T04:01:26.913Z,97894.00
2022-08-28T04:03:54.764Z,97895.00
2022-08-28T04:06:23.963Z,97898.00
2022-08-28T04:08:52.000Z,97899.00
2022-08-28T04:11:19.839Z,97901.00
2022-08-28T04:13:47.609Z,97899.00
2022-08-28T04:16:19.528Z,97899.00
2022-08-28T04:18:49.943Z,97907.00
2022-08-28T04:21:23.548Z,97908.00
2022-08-28T04:23:53.575Z,97903.00
2022-08-28T04:26:25.238Z,97906.00
2022-08-28T04:28:55.065Z,97909.00
2022-08-28T04:31:32.427Z,97912.00
2022-08-28T04:34:01.948Z,97911.00
2022-08-28T04:36:30.440Z,97905.00
2022-08-28T04:39:00.127Z,97914.00
2022-08-28T04:41:28.746Z,97920.00
2022-08-28T04:43:58.309Z,97917.00
2022-08-28T04:46:26.880Z,97913.00
2022-08-28T04:48:58.890Z,97917.00
2022-08-28T04:51:27.333Z,97922.00
2022-08-28T04:53:55.212Z,97917.00
2022-08-28T04:56:25.336Z,97919.00
2022-08-28T04:58:53.368Z,97918.00
2022-08-28T05:01:24.503Z,97921.00
2022-08-28T05:03:57.703Z,97923.00
2022-08-28T05:06:28.048Z,97917.00
2022-08-28T05:08:57.869Z,97924.00
2022-08-28T05:11:34.237Z,97935.00
2022-08-28T05:14:05.198Z,97930.00
2022-08-28T05:16:34.598Z,97936.00
2022-08-28T05:19:03.903Z,97937.00
2022-08-28T05:21:31.728Z,97942.00
2022-08-28T05:23:59.723Z,97940.00
2022-08-28T05:26:29.999Z,97945.00
2022-08-28T05:28:59.919Z,97948.00
2022-08-28T05:31:30.804Z,97955.00
2022-08-28T05:34:00.654Z,97956.00
2022-08-28T05:36:33.143Z,97958.00
2022-08-28T05:39:03.986Z,97961.00
2022-08-28T05:41:34.437Z,97971.00
2022-08-28T05:44:06.489Z,97959.00
2022-08-28T05:46:37.358Z,97966.00
2022-08-28T05:49:09.626Z,97964.00
2022-08-28T05:51:42.347Z,97965.00
2022-08-28T05:54:11.442Z,97971.00
2022-08-28T05:56:42.490Z,97968.00
2022-08-28T05:59:12.126Z,97972.00
2022-08-28T06:01:43.047Z,97975.00
2022-08-28T06:04:14.628Z,97980.00
2022-08-28T06:06:43.706Z,97974.00
2022-08-28T06:09:14.624Z,97969.00
2022-08-28T06:11:46.136Z,97971.00
2022-08-28T06:14:19.660Z,97974.00
2022-08-28T06:16:52.346Z,97962.00
2022-08-28T06:19:22.780Z,97969.00
2022-08-28T06:21:54.685Z,97976.00
2022-08-28T06:24:22.472Z,97977.00
2022-08-28T06:26:52.055Z,97974.00
2022-08-28T06:29:22.283Z,97976.00
2022-08-28T06:31:56.253Z,97978.00
2022-08-28T06:34:24.445Z,97974.00
2022-08-28T06:36:54.247Z,97970.00
2022-08-28T06:39:23.586Z,97980.00
2022-08-28T06:41:53.671Z,97986.00
2022-08-28T06:44:23.483Z,97988.00
2022-08-28T06:46:53.883Z,97985.00
2022-08-28T06:49:22.901Z,97993.00
2022-08-28T06:51:51.397Z,97992.00
2022-08-28T06:54:22.892Z,97988.00
2022-08-28T06:56:53.984Z,97994.00
2022-08-28T06:59:21.989Z,97988.00
2022-08-28T07:01:53.418Z,97990.00
2022-08-28T07:04:21.351Z,97991.00
2022-08-28T07:06:54.151Z,97991.00
2022-08-28T07:09:23.507Z,97992.00
2022-08-28T07:11:52.777Z,97990.00
2022-08-28T07:14:20.613Z,98001.00
2022-08-28T07:16:48.412Z,98001.00
2022-08-28T07:19:17.126Z,97997.00
2022-08-28T07:21:48.037Z,98001.00
2022-08-28T07:24:17.867Z,98003.00
2022-08-28T07:26:48.065Z,98010.00
2022-08-28T07:29:18.392Z,98003.00
2022-08-28T07:31:50.129Z,98005.00
2022-08-28T07:34:22.058Z,98012.00
2022-08-28T07:36:56.188Z,98013.00
2022-08-28T07:39:23.984Z,98016.00
2022-08-28T07:41:51.727Z,98015.00
2022-08-28T07:44:38.779Z,98024.00
2022-08-28T07:47:08.761Z,98031.00
2022-08-28T07:49:37.129Z,98025.00
2022-08-28T07:52:06.327Z,98018.00
2022-08-28T07:54:35.947Z,98031.00
2022-08-28T07:57:04.751Z,98026.00
2022-08-28T07:59:37.031Z,98029.00
2022-08-28T08:02:06.758Z,98028.00
2022-08-28T08:04:35.300Z,98034.00
2022-08-28T08:07:05.598Z,98034.00
2022-08-28T08:09:39.084Z,98041.00
2022-08-28T08:12:07.495Z,98042.00
2022-08-28T08:14:40.872Z,98044.00
2022-08-28T08:17:10.200Z,98039.00
2022-08-28T08:19:38.574Z,98042.00
2022-08-28T08:22:06.578Z,98043.00
2022-08-28T08:24:34.618Z,98048.00
2022-08-28T08:27:03.524Z,98041.00
2022-08-28T08:29:35.584Z,98047.00
2022-08-28T08:32:09.119Z,98050.00
2022-08-28T08:34:39.951Z,98055.00
2022-08-28T08:37:08.697Z,98058.00
2022-08-28T08:39:38.771Z,98063.00
2022-08-28T08:42:26.115Z,98058.00
2022-08-28T08:44:57.363Z,98057.00
2022-08-28T08:47:36.610Z,98064.00
2022-08-28T08:50:10.143Z,98060.00
2022-08-28T08:53:02.525Z,98062.00
2022-08-28T08:55:35.529Z,98059.00
2022-08-28T08:58:12.532Z,98076.00
2022-08-28T09:00:54.723Z,98078.00
2022-08-28T09:03:33.374Z,98073.00
2022-08-28T09:06:04.819Z,98074.00
2022-08-28T09:08:41.574Z,98072.00
2022-08-28T09:11:27.445Z,98076.00
2022-08-28T09:14:04.450Z,98081.00
2022-08-28T09:16:37.283Z,98078.00
2022-08-28T09:19:11.820Z,98082.00
2022-08-28T09:21:43.793Z,98075.00
2022-08-28T09:24:23.418Z,98073.00
2022-08-28T09:26:58.560Z,98071.00
2022-08-28T09:29:32.201Z,98077.00
2022-08-28T09:32:18.053Z,98069.00
2022-08-28T09:35:08.184Z,98067.00
2022-08-28T09:37:38.538Z,98073.00
2022-08-28T09:40:22.627Z,98070.00
2022-08-28T09:43:27.329Z,98070.00
2022-08-28T09:46:00.755Z,98077.00
2022-08-28T09:48:36.087Z,98075.00
2022-08-28T09:51:08.377Z,98064.00
2022-08-28T09:53:39.495Z,98066.00
2022-08-28T09:56:17.839Z,98074.00
2022-08-28T09:58:49.941Z,98079.00
2022-08-28T10:01:45.220Z,98073.00
2022-08-28T10:04:32.950Z,98077.00
2022-08-28T10:07:07.483Z,98073.00
2022-08-28T10:09:48.070Z,98067.00
2022-08-28T10:12:34.096Z,98069.00
2022-08-28T10:15:11.310Z,98072.00
2022-08-28T10:17:53.872Z,98084.00
2022-08-28T10:20:35.405Z,98068.00
2022-08-28T10:23:17.741Z,98071.00
2022-08-28T10:25:55.711Z,98062.00
2022-08-28T10:28:46.217Z,98069.00
2022-08-28T10:31:21.711Z,98072.00
2022-08-28T10:34:11.145Z,98070.00
2022-08-28T10:36:39.230Z,98069.00
2022-08-28T10:39:27.546Z,98068.00
2022-08-28T10:42:01.090Z,98066.00
2022-08-28T10:44:41.739Z,98068.00
2022-08-28T10:47:12.835Z,98066.00
2022-08-28T10:49:43.611Z,98061.00
2022-08-28T10:52:18.291Z,98057.00
2022-08-28T10:54:54.116Z,98066.00
2022-08-28T10:57:39.458Z,98060.00
2022-08-28T11:00:13.140Z,98071.00
2022-08-28T11:02:45.262Z,98073.00
2022-08-28T11:05:14.299Z,98074.00
2022-08-28T11:07:49.761Z,98077.00
2022-08-28T11:10:48.467Z,98081.00
2022-08-28T11:13:44.328Z,98081.00
2022-08-28T11:16:20.415Z,98080.00
2022-08-28T11:19:09.109Z,98082.00
2022-08-28T11:21:45.028Z,98071.00
2022-08-28T11:24:44.091Z,98082.00
2022-08-28T11:27:26.954Z,98074.00
2022-08-28T11:30:26.927Z,98071.00
2022-08-28T11:33:30.796Z,98081.00
2022-08-28T11:35:58.646Z,98084.00
2022-08-28T11:39:21.321Z,98085.00
2022-08-28T11:42:34.852Z,98086.00
2022-08-28T11:45:03.001Z,98079.00
2022-08-28T11:47:56.733Z,98085.00
2022-08-28T11:50:31.837Z,98085.00
2022-08-28T11:53:36.720Z,98086.00
2022-08-28T11:56:45.590Z,98088.00
2022-08-28T11:59:46.266Z,98087.00
2022-08-28T12:02:56.150Z,98082.00
2022-08-28T12:05:54.551Z,98079.00
2022-08-28T12:09:13.398Z,98082.00
2022-08-28T12:12:00.386Z,98080.00
2022-08-28T12:15:11.250Z,98078.00
2022-08-28T12:17:52.055Z,98074.00
2022-08-28T12:20:36.307Z,98075.00
2022-08-28T12:23:31.554Z,98073.00
2022-08-28T12:26:03.608Z,98074.00
2022-08-28T12:28:39.430Z,98073.00
2022-08-28T12:31:54.200Z,98077.00
2022-08-28T12:34:41.705Z,98077.00
2022-08-28T12:37:29.885Z,98078.00
2022-08-28T12:40:08.379Z,98081.00
2022-08-28T12:42:41.867Z,98081.00
2022-08-28T12:45:16.905Z,98072.00
2022-08-28T12:47:49.463Z,98081.00
2022-08-28T12:50:29.540Z,98078.00
2022-08-28T12:53:02.479Z,98080.00
2022-08-28T12:55:31.312Z,98073.00
2022-08-28T12:57:59.738Z,98065.00
2022-08-28T13:00:35.357Z,98072.00
2022-08-28T13:03:08.646Z,98065.00
2022-08-28T13:05:40.982Z,98074.00
2022-08-28T13:08:12.642Z,98074.00
2022-08-28T13:10:48.131Z,98071.00
2022-08-28T13:13:24.079Z,98071.00
2022-08-28T13:15:56.945Z,98071.00
2022-08-28T13:18:47.379Z,98069.00
2022-08-28T13:21:34.861Z,98071.00
2022-08-28T13:24:39.053Z,98062.00
2022-08-28T13:27:18.983Z,98061.00
2022-08-28T13:29:59.817Z,98065.00
2022-08-28T13:32:30.929Z,98054.00
2022-08-28T13:35:35.631Z,98057.00
2022-08-28T13:38:06.648Z,98060.00
2022-08-28T13:40:58.831Z,98056.00
2022-08-28T13:43:30.377Z,98056.00
2022-08-28T13:45:58.650Z,98055.00
2022-08-28T13:48:28.432Z,98054.00
2022-08-28T13:51:10.564Z,98052.00
2022-08-28T13:53:39.592Z,98056.00
2022-08-28T13:56:07.821Z,98054.00
2022-08-28T13:58:35.715Z,98051.00
2022-08-28T14:01:05.803Z,98047.00
2022-08-28T14:03:36.383Z,98052.00
2022-08-28T14:06:11.235Z,98044.00
2022-08-28T14:08:39.733Z,98051.00
2022-08-28T14:11:08.254Z,98044.00
2022-08-28T14:13:40.933Z,98048.00
2022-08-28T14:16:16.807Z,98053.00
2022-08-28T14:18:44.832Z,98047.00
2022-08-28T14:21:13.943Z,98054.00
2022-08-28T14:23:41.788Z,98048.00
2022-08-28T14:26:09.567Z,98045.00
2022-08-28T14:28:37.373Z,98044.00
2022-08-28T14:31:09.895Z,98045.00
2022-08-28T14:33:40.172Z,98047.00
2022-08-28T14:36:18.142Z,98045.00
2022-08-28T14:38:45.940Z,98041.00
2022-08-28T14:41:14.817Z,98044.00
2022-08-28T14:43:43.116Z,98039.00
2022-08-28T14:46:16.562Z,98042.00
2022-08-28T14:48:44.460Z,98041.00
2022-08-28T14:51:12.504Z,98041.00
2022-08-28T14:53:42.089Z,98033.00
2022-08-28T14:56:10.879Z,98029.00
2022-08-28T14:58:39.101Z,98043.00
2022-08-28T15:01:07.376Z,98037.00
2022-08-28T15:03:35.908Z,98032.00
2022-08-28T15:06:06.476Z,98039.00
2022-08-28T15:08:35.693Z,98040.00
2022-08-28T15:11:08.615Z,98031.00
2022-08-28T15:13:36.824Z,98039.00
2022-08-28T15:16:10.577Z,98035.00
2022-08-28T15:18:45.871Z,98043.00
2022-08-28T15:21:19.022Z,98041.00
2022-08-28T15:23:46.903Z,98036.00
2022-08-28T15:26:16.444Z,98039.00
2022-08-28T15:28:44.363Z,98041.00
2022-08-28T15:31:12.924Z,98040.00
2022-08-28T15:33:45.108Z,98043.00
2022-08-28T15:36:13.326Z,98035.00
2022-08-28T15:38:58.655Z,98039.00
2022-08-28T15:41:29.417Z,98037.00
2022-08-28T15:44:00.133Z,98034.00
2022-08-28T15:46:29.705Z,98026.00
2022-08-28T15:48:58.459Z,98030.00
2022-08-28T15:51:27.530Z,98040.00
2022-08-28T15:53:55.897Z,98028.00
2022-08-28T15:56:23.772Z,98028.00
2022-08-28T15:58:53.263Z,98033.00
2022-08-28T16:01:22.403Z,98034.00
2022-08-28T16:03:50.261Z,98037.00
2022-08-28T16:06:21.554Z,98033.00
2022-08-28T16:08:50.571Z,98041.00
2022-08-28T16:11:22.967Z,98041.00
2022-08-28T16:13:52.494Z,98039.00
2022-08-28T16:16:21.062Z,98037.00
2022-08-28T16:18:48.964Z,98035.00
2022-08-28T16:21:16.827Z,98036.00
2022-08-28T16:23:44.837Z,98030.00
2022-08-28T16:26:15.746Z,98041.00
2022-08-28T16:28:44.740Z,98034.00
2022-08-28T16:31:18.841Z,98045.00
2022-08-28T16:33:47.553Z,98039.00
2022-08-28T16:36:16.774Z,98036.00
2022-08-28T16:38:57.256Z,98041.00
2022-08-28T16:41:31.868Z,98038.00
2022-08-28T16:44:00.837Z,98034.00
2022-08-28T16:46:30.239Z,98031.00
2022-08-28T16:48:59.555Z,98027.00
2022-08-28T16:51:27.767Z,98029.00
2022-08-28T16:53:56.220Z,98030.00
2022-08-28T16:56:24.996Z,98030.00
2022-08-28T16:58:53.414Z,98027.00
2022-08-28T17:01:24.080Z,98028.00
2022-08-28T17:03:55.331Z,98031.00
2022-08-28T17:06:26.359Z,98025.00
2022-08-28T17:08:57.084Z,98027.00
2022-08-28T17:11:27.123Z,98036.00
2022-08-28T17:13:56.327Z,98029.00
2022-08-28T17:16:25.979Z,98024.00
2022-08-28T17:18:55.183Z,98030.00
2022-08-28T17:21:41.031Z,98028.00
2022-08-28T17:24:09.524Z,98035.00
2022-08-28T17:26:37.383Z,98033.00
2022-08-28T17:29:05.576Z,98029.00
2022-08-28T17:31:33.493Z,98030.00
2022-08-28T17:34:02.755Z,98031.00
2022-08-28T17:36:34.019Z,98030.00
2022-08-28T17:39:02.580Z,98029.00
2022-08-28T17:41:30.548Z,98030.00
2022-08-28T17:43:58.332Z,98048.00
2022-08-28T17:46:26.703Z,98041.00
2022-08-28T17:48:56.070Z,98038.00
2022-08-28T17:51:40.372Z,98044.00
2022-08-28T17:54:11.687Z,98043.00
2022-08-28T17:56:40.126Z,98049.00
2022-08-28T17:59:07.955Z,98047.00
2022-08-28T18:01:36.025Z,98051.00
2022-08-28T18:04:05.224Z,98053.00
2022-08-28T18:06:34.853Z,98048.00
2022-08-28T18:09:02.715Z,98052.00
2022-08-28T18:11:30.723Z,98059.00
2022-08-28T18:13:59.748Z,98056.00
2022-08-28T18:16:31.458Z,98062.00
2022-08-28T18:18:59.784Z,98065.00
2022-08-28T18:21:28.584Z,98065.00
2022-08-28T18:23:58.427Z,98065.00
2022-08-28T18:26:26.588Z,98072.00
2022-08-28T18:28:54.379Z,98076.00
2022-08-28T18:31:22.428Z,98075.00
2022-08-28T18:33:51.232Z,98079.00
2022-08-28T18:36:19.139Z,98079.00
2022-08-28T18:38:47.237Z,98085.00
2022-08-28T18:41:16.449Z,98079.00
2022-08-28T18:43:44.473Z,98074.00
2022-08-28T18:46:14.191Z,98088.00
2022-08-28T18:48:43.449Z,98090.00
2022-08-28T18:51:13.692Z,98094.00
2022-08-28T18:53:43.618Z,98094.00
2022-08-28T18:56:12.590Z,98106.00
2022-08-28T18:58:42.557Z,98099.00
2022-08-28T19:01:11.538Z,98098.00
2022-08-28T19:03:39.347Z,98096.00
2022-08-28T19:06:07.929Z,98098.00
2022-08-28T19:08:37.698Z,98106.00
2022-08-28T19:11:08.831Z,98113.00
2022-08-28T19:13:37.198Z,98110.00
2022-08-28T19:16:07.352Z,98112.00
2022-08-28T19:18:35.624Z,98114.00
2022-08-28T19:21:06.048Z,98114.00
2022-08-28T19:23:34.031Z,98110.00
2022-08-28T19:26:02.043Z,98119.00
2022-08-28T19:28:30.018Z,98120.00
2022-08-28T19:30:57.877Z,98123.00
2022-08-28T19:33:27.046Z,98121.00
2022-08-28T19:35:55.428Z,98132.00
2022-08-28T19:38:24.030Z,98132.00
2022-08-28T19:40:51.929Z,98134.00
2022-08-28T19:43:19.693Z,98136.00
2022-08-28T19:45:48.150Z,98137.00
2022-08-28T19:48:16.509Z,98139.00
2022-08-28T19:50:45.687Z,98140.00
2022-08-28T19:53:13.480Z,98146.00
2022-08-28T19:55:41.307Z,98149.00
2022-08-28T19:58:10.354Z,98152.00
2022-08-28T20:00:38.177Z,98154.00
2022-08-28T20:03:06.083Z,98160.00
2022-08-28T20:05:33.886Z,98162.00
2022-08-28T20:08:07.698Z,98170.00
2022-08-28T20:10:35.505Z,98169.00
2022-08-28T20:13:03.357Z,98166.00
2022-08-28T20:15:31.407Z,98172.00
2022-08-28T20:17:59.283Z,98169.00
2022-08-28T20:20:30.034Z,98164.00
2022-08-28T20:22:58.111Z,98167.00
2022-08-28T20:25:28.335Z,98168.00
2022-08-28T20:28:01.370Z,98163.00
2022-08-28T20:30:29.908Z,98165.00
2022-08-28T20:32:58.337Z,98169.00
2022-08-28T20:35:27.611Z,98165.00
2022-08-28T20:37:55.736Z,98164.00
2022-08-28T20:40:24.344Z,98169.00
2022-08-28T20:42:53.573Z,98168.00
2022-08-28T20:45:22.205Z,98172.00
2022-08-28T20:47:50.064Z,98176.00
2022-08-28T20:50:17.967Z,98163.00
2022-08-28T20:52:45.783Z,98169.00
2022-08-28T20:55:14.141Z,98169.00
2022-08-28T20:57:42.454Z,98178.00
2022-08-28T21:00:13.885Z,98178.00
2022-08-28T21:02:41.704Z,98178.00
2022-08-28T21:05:10.035Z,98183.00
2022-08-28T21:07:37.975Z,98176.00
2022-08-28T21:10:08.098Z,98186.00
2022-08-28T21:12:37.809Z,98185.00
2022-08-28T21:15:07.367Z,98185.00
2022-08-28T21:17:36.532Z,98189.00
2022-08-28T21:20:09.365Z,98181.00
2022-08-28T21:22:39.177Z,98180.00
2022-08-28T21:25:10.436Z,98182.00
2022-08-28T21:27:39.166Z,98188.00
2022-08-28T21:30:09.924Z,98186.00
2022-08-28T21:32:39.602Z,98186.00
2022-08-28T21:35:12.004Z,98193.00
2022-08-28T21:37:41.265Z,98193.00
2022-08-28T21:40:13.725Z,98193.00
2022-08-28T21:42:42.085Z,98190.00
2022-08-28T21:45:12.515Z,98193.00
2022-08-28T21:47:41.996Z,98191.00
2022-08-28T21:50:12.182Z,98188.00
2022-08-28T21:52:41.016Z,98191.00
2022-08-28T21:55:13.749Z,98192.00
2022-08-28T21:57:42.443Z,98197.00
2022-08-28T22:00:17.318Z,98197.00
2022-08-28T22:02:47.137Z,98200.00
2022-08-28T22:05:16.396Z,98200.00
2022-08-28T22:07:45.078Z,98201.00
2022-08-28T22:10:13.295Z,98201.00
2022-08-28T22:12:41.152Z,98201.00
2022-08-28T22:15:09.315Z,98205.00
2022-08-28T22:17:37.140Z,98208.00
2022-08-28T22:20:07.359Z,98214.00
2022-08-28T22:22:52.432Z,98219.00
2022-08-28T22:25:20.345Z,98226.00
2022-08-28T22:27:48.164Z,98226.00
2022-08-28T22:30:16.412Z,98220.00
2022-08-28T22:32:45.342Z,98225.00
2022-08-28T22:35:14.578Z,98225.00
2022-08-28T22:37:42.986Z,98221.00
2022-08-28T22:40:13.426Z,98227.00
2022-08-28T22:42:41.672Z,98226.00
2022-08-28T22:45:10.541Z,98221.00
2022-08-28T22:47:38.524Z,98221.00
2022-08-28T22:50:08.494Z,98221.00
2022-08-28T22:52:38.226Z,98214.00
2022-08-28T22:55:10.500Z,98206.00
2022-08-28T22:57:40.970Z,98212.00
2022-08-28T23:00:12.747Z,98221.00
2022-08-28T23:02:42.663Z,98220.00
2022-08-28T23:05:10.747Z,98216.00
2022-08-28T23:07:40.067Z,98225.00
2022-08-28T23:10:09.992Z,98220.00
2022-08-28T23:12:38.052Z,98227.00
2022-08-28T23:15:09.927Z,98225.00
2022-08-28T23:17:38.288Z,98226.00
2022-08-28T23:20:13.763Z,98222.00
2022-08-28T23:22:43.312Z,98219.00
2022-08-28T23:25:16.871Z,98225.00
2022-08-28T23:27:45.311Z,98224.00
2022-08-28T23:30:17.179Z,98225.00
2022-08-28T23:32:45.071Z,98223.00
2022-08-28T23:35:15.163Z,98217.00
2022-08-28T23:37:48.676Z,98218.00
2022-08-28T23:40:23.691Z,98222.00
2022-08-28T23:42:51.857Z,98220.00
2022-08-28T23:45:21.195Z,98225.00
2022-08-28T23:47:49.512Z,98224.00
2022-08-28T23:50:21.400Z,98219.00
2022-08-28T23:52:51.655Z,98218.00
2022-08-28T23:55:20.847Z,98219.00
2022-08-28T23:57:48.847Z,98218.00
